航空気象通報

ウインドサーファーのための航空気象通報による風予報です。

2/28-3/1の航空気象通報(国内、海外)

2010年02月28日 20時06分25秒 | TAF
羽田空港
TAF RJTT 280838Z 2809/0112 14005KT 9999 FEW020 SCT030
TEMPO 2821/2824 3000 BR
BECMG 0103/0106 20018KT
TEMPO 0103/0109 20020G30KT
日本時間28日18時-1日12時:140度から5ノットの風
12-15時:風が変化
15-21時:200度から18ノットの風
但し、12-18時の間:一時。200度から20ノット、突風30ノット


富士山静岡空港
TAF RJNS 280839Z 2809/0112 18008KT 9999 FEW010 BKN020
BECMG 2812/2814 32006KT
TEMPO 2815/2821 4000 BR
BECMG 0100/0103 22010KT
日本時間28日18-21時:180度から8ノットの風
21-23時:風が変化
23時-1日09時:320度から6ノットの風
09-12時:風が変化
12-21時:220度から10ノットの風

但し、1日00-06時の間:もや

那覇空港
TAF ROAH 280839Z 2809/0112 14005KT 9999 FEW015 SCT025
日本時間28日18時-1日21時:140度から5ノットの風


マウイのカフルイ空港
PHOG 281136Z 2812/0112 04012G18KT P6SM FEW040
FM282000 04022G32KT P6SM FEW035 SCT050
ハワイ時間28日02-10時:040度から12ノット、突風18ノット
10時-1日02時:040度から22ノット、突風32ノット


サイパン空港
TAFPQ TAF AMD PGSN 281145Z 2812/0112 07013G20KT P6SM -SHRA SCT020 BKN040
FM282300 08015G22KT P6SM VCSH SCT025 SCT050
マリアナ時間28日22時-1日09時:070度から13ノット、突風20ノット

09-22時:080度から15ノット、突風22ノット
コメント

2/27-2/28の航空気象通報(国内、海外)

2010年02月27日 23時01分57秒 | TAF
羽田空港
TAF RJTT 270839Z 2709/2812 05012KT 9999 FEW015 BKN030
TEMPO 2721/2803 4000 RA BR BKN008 BKN012
BECMG 2809/2812 07008KT
日本時間27日18-28日18時:050度から12ノットの風
18-21時:風が変化
21時:070度から8ノットの風

但し、28日06-12時の間:一時、

富士山静岡空港
TAF AMD RJNS 270940Z 2709/2812 18006KT 8000 -RA FEW002 SCT006 BKN012
TEMPO 2709/2712 3000 -RA BR BKN003 BKN005
BECMG 2718/2721 04010KT 4000 -RA BR FEW004 BKN009 BKN012
TEMPO 2721/2803 2500 RA BR FEW002 BKN006
BECMG 2803/2806 18006KT 9999 NSW FEW008 SCT012 BKN025
日本時間27日18時-28日03時:180度から6ノットの風
03-06時:風が変化
06-12時:040度から10ノットの風
12-15時:風が変化
15-21時:180度から6ノットの風

但し、27日18-21時の間:一時、
但し、28日06-12時の間:一時、

那覇空港
TAF AMD ROAH 271026Z 2710/2812 36010KT 9999 SCT010 BKN035
BECMG 2803/2806 06009KT
BECMG 2809/2812 10006KT
日本時間27日19時-28日12時:360度から10ノットの風
12-15時:風が変化
15-21時:100度から6ノットの風


マウイのカフルイ空港
PHOG 271128Z 2712/2812 13004KT P6SM FEW060
FM272100 36012KT P6SM FEW035 SCT050
ハワイ時間27日02-11時:130度から4ノットの風
11-22時:360度から12ノットの風


サイパン空港
PGSN 271120Z 2712/2812 08016G23KT P6SM VCSH SCT020 SCT060
TEMPO 2712/2716 -SHRA SCT015 BKN050
マリアナ時間27日22時-28日21時:080度から16ノット、突風23ノット
コメント

2/26-2/27の航空気象通報(国内、海外)

2010年02月27日 00時03分56秒 | TAF
羽田空港
TAF RJTT 260845Z 2609/2712 18018KT 8000 -SHRA FEW015 SCT030 BKN060
TEMPO 2609/2612 21018G30KT
TEMPO 2612/2618 4000 -SHRA BR BKN008 BKN010
TEMPO 2618/2624 3000 +SHRA BR BKN008 BKN010
BECMG 2621/2624 04018KT
日本時間26日18-27日06時:180度から18ノットの風
06-09時:風が変化
09-21時:040度から18ノットの風


富士山静岡空港
TAF RJNS 260838Z 2609/2712 22008KT 6000 -SHRA FEW006 SCT010 BKN015
TEMPO 2609/2612 2500 SHRA BR FEW004 BKN006
BECMG 2612/2614 24018KT 3000 -SHRA BR FEW004 BKN008 BKN012
TEMPO 2612/2621 1200 SHRA BR FEW002 BKN003
BECMG 2621/2624 6000 -SHRA FEW004 SCT008 BKN012
BECMG 2700/2703 10008KT
日本時間26日18-21時:220度から8ノットの風
21-23時:風が変化
23時-27日06時:240度から18ノットの風
09-12時:風が変化
12-21時:100度から8ノットの風


那覇空港
TAF AMD ROAH 261253Z 2612/2712 20012KT 9999 FEW015 BKN035
TEMPO 2612/2615 2000 +TSRA FEW003 BKN005 BKN015 BKN020CB
TEMPO 2615/2616 4000 SHRA
BECMG 2618/2621 34005KT
TEMPO 2618/2621 4000 SHRA
日本時間26日18時-27日03時:200度から12ノットの風
03-06時:風が変化
06-21時:340度から5ノットの風

但し、26日21-24時の間:一時、
但し、27日00-01時の間:一時、
但し、27日03-06時の間:一時、

マウイのカフルイ空港
PHOG 261120Z 2612/2712 06010KT P6SM FEW030 FEW050
FM262000 05013G20KT P6SM FEW030 SCT050
FM270500 06009KT P6SM FEW040
FM270800 14006KT P6SM FEW040
ハワイ時間26日02-10時:060度から10ノットの風
10-19時:050度から13ノット、突風20ノット
19-22時:060度から9ノットの風
22時-27日02時:140度から6ノットの風


サイパン空港
PGSN 261120Z 2612/2712 07016G25KT P6SM VCSH SCT020 SCT050
マリアナ時間26日22時-27日21時:070度から16ノット、突風25ノット

コメント

2/25-2/26の航空気象通報(国内、海外)

2010年02月25日 23時31分43秒 | TAF
羽田空港
TAF AMD RJTT 251146Z 2511/2612 19016KT 9999 FEW030
TEMPO 2511/2515 20018G30KT
TEMPO 2521/2603 21020G32KT
日本時間25日20時-26日21時:190度から16ノットの風
但し、25日20-24時の間:一時、200度から18ノット、突風30ノット
但し、26日06-12時の間:一時、210度から20ノット、突風32ノット


富士山静岡空港
TAF RJNS 250853Z 2509/2612 24006KT 9999 FEW010 SCT020 BKN040
TEMPO 2518/2524 4000 BR
TEMPO 2600/2606 24015G25KT
TEMPO 2606/2612 3000 SHRA BR FEW004 BKN008
日本時間25日18時-26日21時:240度から6ノットの風
但し、26日09-15時の間:一時、240度から15ノット、突風25ノット

但し、26日03-09時の間:一時、
但し、26日15-21時の間:一時、

那覇空港
TAF ROAH 250841Z 2509/2612 17012KT 9999 FEW015 SCT030
日本時間25日22時-26日21時:170度から12ノットの風


マウイのカフルイ空港
PHOG 251120Z 2512/2612 04006KT P6SM SKC
FM252000 03010G16KT P6SM FEW030 SCT050
FM252200 04015G22KT P6SM SCT030 SCT050
FM260500 05011G17KT P6SM SCT045
FM260700 05010KT P6SM FEW040
ハワイ時間25日02-10時:040度から6ノットの風
10-12時:030度から10ノット、突風16ノット
12-19時:040度から15ノット、突風22ノット
19-21時:050度から11ノット、突風17ノット
21時-26日02時:050度から10ノットの風


サイパン空港
PGSN 251228Z 2512/2612 04011KT P6SM VCSH SCT020 BKN050
FM260100 07018G28KT P6SM VCSH SCT020 SCT050
マリアナ時間25日22時-26日11時:040度から11ノットの風
11-22時:070度から18ノット、突風28ノット

コメント

2/22-2/23の航空気象通報(国内、海外)

2010年02月22日 22時48分41秒 | TAF
羽田空港
TAF RJTT 220847Z 2209/2312 36008KT 9999 FEW020 SCT030
BECMG 2303/2306 15010KT
日本時間22日18時-23日12時:360度から8ノットの風
12-15時:風が変化
15-21時:150度から10ノットの風


富士山静岡空港
TAF RJNS 220838Z 2209/2312 28006KT 9999 FEW030
TEMPO 2218/2221 4000 BR
日本時間22日18時-23日21時:280度から6ノットの風

但し、23日03-06時の間:一時、もや

那覇空港
TAF AMD ROAH 221306Z 2213/2312 36018KT 9999 -SHRA FEW010 BKN015
TEMPO 2213/2215 02020G32KT 2000 +TSRA FEW008 BKN015 FEW025CB
TEMPO 2215/2218 4000 SHRA FEW008 BKN015 FEW025CB
BECMG 2309/2312 04008KT
日本時間22日22時-23日18時:360度から18ノットの風
18-21時:風が変化
21時:040度から8ノットの風

但し、22日22-24時の間:一時、
但し、23日00-03時の間:一時、

マウイのカフルイ空港
PHOG 221137Z 2212/2312 VRB05KT P6SM SCT250
FM222100 03008KT P6SM SCT060
FM230600 VRB05KT P6SM SCT250
ハワイ時間22日02-11時:風向不定5ノットの風
11-20時:030度から8ノットの風
20時-23日02時:風向不定5ノットの風


サイパン空港
PGSN 221120Z 2212/2312 05008KT P6SM SCT025 SCT050
マリアナ時間22日22時-23日22時:050度から8ノットの風

コメント